Terminal Aerodrome Forecast
Issued by NWS Omaha/Valley, NE

Home | Current Version | Previous Version | Graphics & Text | Print | Product List | Glossary On
Versions: 1 2 3 4 5 6 7 8 9 10 11 12 13 14 15 16 17 18 19 20 21 22 23 24 25 26 27 28
000
FTUS43 KOAX 261320 AAA
TAFOFK
TAF AMD
KOFK 261320Z 2613/2712 VRB04KT 5SM BR SCT005
      TEMPO 2613/2615 BKN005
     FM261500 VRB05KT P6SM BKN250
     FM262100 36005KT P6SM SCT250=

USA.gov is the U.S. government's official web portal to all federal, state and local government web resources and services.